Airfield :
LOGIN :

Register | Disclaimer

   EN    FR    IT 

 










Legend :    VFR   Marginal VFR   IFR   Intensive IFR   Very Intensive IFR
Visi :
Ceiling :
>= 8 km
>= 3000ft
5 to 8 km
1000 to 3000 ft
1500m to 5 km
500 to 1000 ft
800 to 1500m
200 to 500 ft
< 800m
< 200 ft
Symbols :   Thunderstorms  Fog  Heavy snow  Heavy precipitations  Wind > 20 kt
SIGMETs :     Misc.  Thunderstorms  Icing  Turbulence  Mountain Waves  Volcanic Ashes






- Airport Elevation : 74 ft
- IATA code : NDZ


ETMN - Cuxhaven Nordholz Sea AB

CURRENT METAR :
  • 210720Z 06005KT 3000 BR FEW005 BKN037 03/02 Q1014 YLO YLO TEMPO RED

EXPIRED METARs :
  • 210701Z 08005KT 3200 BR FEW005 BKN040 02/02 Q1014 YLO YLO TEMPO RED
  • 210648Z 08004KT 3500 BR SCT005 BKN041 02/02 Q1014 YLO RED TEMPO YLO
  • 210620Z 10004KT 3700 BR BKN002 02/02 Q1014 AMB RED TEMPO AMB
  • 210539Z 13004KT 3700 BR OVC001 02/02 Q1014 RED RED
  • 210533Z 14006KT 2700 BR OVC001 02/02 Q1014 RED RED

TAF AMD TAF ETMN
Valid from the 21 at 06:00 until the 21 at 15:00 UTC


210658Z 2106/2115 10005KT 3000 BR OVC004
TEMPO 2106/2115 09005KT 0700 FG VV001



MET'MAP, your aeronautical weather chart ! - Copyright ORBIFLY December 2007 - Disclaimer

ORBIFLY MET'MAP TEAM :

Programming & Development : Alexandra Zaïnal
Concept & Development : Baudouin d'Aumeries
Co-Development & Prog : Marc-Olivier Méhu
Technical & hardware support : Manuel Goepfert

Contact : metmap@orbifly.com




SOURCES & CREDITS :

   NOAA